S5KEA LJBO-LJBL
Flight info
| Callsign | S5KEA |
|---|---|
| Flight time | 0h 22m |
| Altitude | 5500 |
| Route | DCT 462032N0133959E 462227N0134800E 462740N0135629E/N0105A035 462455N0140535E DCT |
| Aircraft | C172/L-SBDGR/C |
Departure
| Time | 2026-05-04 15:20 |
|---|---|
| Airport | Bovec Airfield (LJBO) |
Arrival
| Time | 2026-05-04 15:42 |
|---|---|
| Airport | Lesce Airfield (LJBL) |
| Time | Latitude | Longitude | Altitude | Speed | Heading |
|---|---|---|---|---|---|
| 2026-05-04 15:08 | 46.33072 | 13.55323 | 1449 ft | 0 kts | 67° |
| 2026-05-04 15:17 | 46.33073 | 13.55323 | 1448 ft | 0 kts | 67° |
| 2026-05-04 15:17 | 46.33014 | 13.55380 | 1448 ft | 5 kts | 172° |
| 2026-05-04 15:17 | 46.32991 | 13.55354 | 1447 ft | 6 kts | 243° |
| 2026-05-04 15:18 | 46.32964 | 13.55245 | 1444 ft | 15 kts | 251° |
| 2026-05-04 15:18 | 46.32927 | 13.55088 | 1438 ft | 17 kts | 252° |
| 2026-05-04 15:18 | 46.32891 | 13.54922 | 1434 ft | 17 kts | 251° |
| 2026-05-04 15:19 | 46.32820 | 13.54608 | 1421 ft | 33 kts | 254° |
| 2026-05-04 15:19 | 46.32716 | 13.54100 | 1483 ft | 60 kts | 251° |
| 2026-05-04 15:19 | 46.32475 | 13.52949 | 1847 ft | 59 kts | 249° |
| 2026-05-04 15:20 | 46.32203 | 13.52536 | 1982 ft | 61 kts | 185° |
| 2026-05-04 15:20 | 46.31805 | 13.52729 | 2169 ft | 57 kts | 163° |
| 2026-05-04 15:20 | 46.31572 | 13.53176 | 2281 ft | 66 kts | 102° |
| 2026-05-04 15:20 | 46.31646 | 13.53887 | 2374 ft | 74 kts | 76° |
| 2026-05-04 15:21 | 46.31831 | 13.54591 | 2544 ft | 74 kts | 72° |
| 2026-05-04 15:21 | 46.32008 | 13.55267 | 2725 ft | 70 kts | 74° |
| 2026-05-04 15:21 | 46.32315 | 13.56649 | 3088 ft | 71 kts | 75° |
| 2026-05-04 15:22 | 46.32492 | 13.57351 | 3222 ft | 78 kts | 68° |
| 2026-05-04 15:22 | 46.32758 | 13.58060 | 3345 ft | 85 kts | 62° |
| 2026-05-04 15:22 | 46.33422 | 13.59618 | 3588 ft | 96 kts | 61° |
| 2026-05-04 15:23 | 46.33640 | 13.60540 | 3710 ft | 98 kts | 80° |
| 2026-05-04 15:23 | 46.33755 | 13.61519 | 3831 ft | 100 kts | 85° |
| 2026-05-04 15:23 | 46.33814 | 13.62545 | 3963 ft | 103 kts | 90° |
| 2026-05-04 15:23 | 46.33846 | 13.63589 | 4105 ft | 104 kts | 91° |
| 2026-05-04 15:24 | 46.33911 | 13.65713 | 4363 ft | 107 kts | 90° |
| 2026-05-04 15:24 | 46.34192 | 13.67829 | 4605 ft | 109 kts | 64° |
| 2026-05-04 15:25 | 46.34591 | 13.68765 | 4730 ft | 110 kts | 52° |
| 2026-05-04 15:25 | 46.35070 | 13.69641 | 4855 ft | 111 kts | 51° |
| 2026-05-04 15:25 | 46.35561 | 13.70515 | 4984 ft | 111 kts | 51° |
| 2026-05-04 15:26 | 46.36579 | 13.72160 | 5260 ft | 106 kts | 52° |
| 2026-05-04 15:26 | 46.37034 | 13.72988 | 5425 ft | 103 kts | 55° |
| 2026-05-04 15:26 | 46.37958 | 13.74750 | 5515 ft | 120 kts | 56° |
| 2026-05-04 15:27 | 46.38349 | 13.75847 | 5507 ft | 125 kts | 77° |
| 2026-05-04 15:27 | 46.38273 | 13.78220 | 5501 ft | 109 kts | 121° |
| 2026-05-04 15:28 | 46.37833 | 13.80223 | 5545 ft | 116 kts | 91° |
| 2026-05-04 15:28 | 46.38254 | 13.81037 | 5818 ft | 104 kts | 24° |
| 2026-05-04 15:28 | 46.39234 | 13.82630 | 5423 ft | 131 kts | 53° |
| 2026-05-04 15:29 | 46.39768 | 13.83632 | 5280 ft | 119 kts | 35° |
| 2026-05-04 15:30 | 46.42201 | 13.86216 | 5512 ft | 103 kts | 49° |
| 2026-05-04 15:30 | 46.43772 | 13.88862 | 5517 ft | 124 kts | 51° |
| 2026-05-04 15:31 | 46.44727 | 13.91005 | 5522 ft | 128 kts | 61° |
| 2026-05-04 15:31 | 46.45187 | 13.92116 | 5514 ft | 126 kts | 62° |
| 2026-05-04 15:32 | 46.46150 | 13.95348 | 5503 ft | 108 kts | 82° |
| 2026-05-04 15:32 | 46.46217 | 13.97583 | 5054 ft | 110 kts | 107° |
| 2026-05-04 15:33 | 46.45773 | 13.99552 | 4632 ft | 98 kts | 122° |
| 2026-05-04 15:34 | 46.44738 | 14.01994 | 4026 ft | 94 kts | 129° |
| 2026-05-04 15:34 | 46.44398 | 14.02820 | 3910 ft | 96 kts | 124° |
| 2026-05-04 15:34 | 46.43832 | 14.04596 | 3662 ft | 94 kts | 118° |
| 2026-05-04 15:35 | 46.43321 | 14.06273 | 3520 ft | 87 kts | 119° |
| 2026-05-04 15:35 | 46.43075 | 14.07083 | 3518 ft | 89 kts | 125° |
| 2026-05-04 15:35 | 46.42694 | 14.07807 | 3518 ft | 92 kts | 135° |
| 2026-05-04 15:36 | 46.41752 | 14.09081 | 3494 ft | 93 kts | 147° |
| 2026-05-04 15:36 | 46.41254 | 14.09658 | 3491 ft | 87 kts | 146° |
| 2026-05-04 15:36 | 46.40907 | 14.10321 | 3418 ft | 87 kts | 122° |
| 2026-05-04 15:37 | 46.40631 | 14.11143 | 3291 ft | 92 kts | 120° |
| 2026-05-04 15:37 | 46.40353 | 14.11989 | 3140 ft | 95 kts | 119° |
| 2026-05-04 15:37 | 46.40042 | 14.12869 | 3002 ft | 100 kts | 122° |
| 2026-05-04 15:37 | 46.39704 | 14.13762 | 2888 ft | 103 kts | 124° |
| 2026-05-04 15:38 | 46.39344 | 14.14672 | 2791 ft | 106 kts | 124° |
| 2026-05-04 15:38 | 46.38962 | 14.15594 | 2668 ft | 103 kts | 128° |
| 2026-05-04 15:38 | 46.38592 | 14.16462 | 2619 ft | 97 kts | 127° |
| 2026-05-04 15:38 | 46.38251 | 14.17277 | 2642 ft | 93 kts | 127° |
| 2026-05-04 15:39 | 46.37841 | 14.17959 | 2613 ft | 88 kts | 155° |
| 2026-05-04 15:39 | 46.37328 | 14.18444 | 2572 ft | 87 kts | 155° |
| 2026-05-04 15:39 | 46.36321 | 14.19407 | 2510 ft | 91 kts | 148° |
| 2026-05-04 15:40 | 46.35823 | 14.19966 | 2512 ft | 89 kts | 150° |
| 2026-05-04 15:40 | 46.35312 | 14.20460 | 2505 ft | 90 kts | 152° |
| 2026-05-04 15:40 | 46.34780 | 14.20948 | 2433 ft | 88 kts | 165° |
| 2026-05-04 15:40 | 46.34239 | 14.20838 | 2317 ft | 76 kts | 227° |
| 2026-05-04 15:41 | 46.33956 | 14.20240 | 2215 ft | 74 kts | 241° |
| 2026-05-04 15:41 | 46.33938 | 14.19500 | 2059 ft | 81 kts | 289° |
| 2026-05-04 15:41 | 46.34302 | 14.18922 | 2026 ft | 80 kts | 315° |
| 2026-05-04 15:41 | 46.34734 | 14.18397 | 1928 ft | 80 kts | 324° |
| 2026-05-04 15:42 | 46.35175 | 14.17943 | 1721 ft | 76 kts | 314° |
| 2026-05-04 15:42 | 46.35518 | 14.17572 | 1657 ft | 48 kts | 317° |
| 2026-05-04 15:42 | 46.35736 | 14.17341 | 1657 ft | 30 kts | 321° |
| 2026-05-04 15:42 | 46.35883 | 14.17184 | 1659 ft | 23 kts | 326° |
| 2026-05-04 15:43 | 46.35999 | 14.17062 | 1658 ft | 16 kts | 317° |
| 2026-05-04 15:43 | 46.36055 | 14.17054 | 1659 ft | 7 kts | 55° |
| 2026-05-04 15:43 | 46.36063 | 14.17131 | 1659 ft | 9 kts | 141° |
| 2026-05-04 15:43 | 46.36073 | 14.17187 | 1660 ft | 3 kts | 347° |
| 2026-05-04 15:44 | 46.36087 | 14.17150 | 1659 ft | 0 kts | 229° |